Terminal Aerodrome Forecast
Issued by NWS

Home | Current Version | Previous Version | Text Only | Print | Product List | Glossary On
Versions: 1 2 3 4 5 6 7 8 9 10 11 12 13 14 15 16 17
000
FTAK31 PAJN 290300 AAA
TAFAPG
TAF AMD
PAPG 290307Z 2903/2924 06005KT 4SM -RA BR SCT003 BKN015 OVC030
      TEMPO 2903/2906 2SM RA BR BKN003 OVC015
     FM290600 VRB03KT 4SM -RA BR SCT005 BKN010 OVC015
     FM291800 VRB04KT 6SM -RA BR FEW005 BKN015 OVC030
     FM292100 06005KT P6SM -RA SCT025 OVC050
      AMD LTD TO CLD VIS AND WIND 2906/2915=

USA.gov is the U.S. government's official web portal to all federal, state and local government web resources and services.